createdAt,value
2022-11-14T06:04:38.258Z,2.85
2022-11-14T06:15:48.363Z,2.81
2022-11-14T06:27:03.234Z,2.81
2022-11-14T06:38:20.538Z,2.82
2022-11-14T06:49:28.694Z,2.83
2022-11-14T07:00:09.876Z,2.83
2022-11-14T07:11:22.425Z,2.85
2022-11-14T07:22:30.740Z,2.86
2022-11-14T07:33:14.456Z,2.86
2022-11-14T07:44:19.139Z,2.88
2022-11-14T07:55:30.723Z,2.89
2022-11-14T08:06:43.909Z,2.91
2022-11-14T08:17:53.016Z,2.92
2022-11-14T08:29:01.626Z,2.94
2022-11-14T08:39:49.686Z,2.96
2022-11-14T08:50:52.719Z,3.00
2022-11-14T09:01:32.147Z,2.98
2022-11-14T09:12:35.931Z,3.01
2022-11-14T09:23:15.201Z,3.04
2022-11-14T09:34:16.905Z,3.09
2022-11-14T09:45:18.611Z,3.15
2022-11-14T09:56:20.970Z,3.14
2022-11-14T10:07:22.090Z,3.13
2022-11-14T10:18:24.363Z,3.15
2022-11-14T10:29:24.818Z,3.21
2022-11-14T10:40:20.282Z,3.20
2022-11-14T10:51:15.825Z,3.20
2022-11-14T11:02:16.402Z,3.23
2022-11-14T11:12:51.936Z,3.26
2022-11-14T11:23:31.617Z,3.39
2022-11-14T11:34:28.593Z,3.36
2022-11-14T11:45:26.690Z,3.39
2022-11-14T11:56:00.988Z,3.40
2022-11-14T12:06:59.542Z,3.41
2022-11-14T12:18:01.632Z,3.43
2022-11-14T12:29:01.006Z,3.43
2022-11-14T12:39:58.996Z,3.41
2022-11-14T12:50:53.707Z,3.37
2022-11-14T13:01:49.089Z,3.30
2022-11-14T13:12:49.140Z,3.30
2022-11-14T13:23:20.969Z,3.27
2022-11-14T13:34:05.383Z,3.29
2022-11-14T13:44:44.126Z,3.32
2022-11-14T13:55:35.619Z,3.31
2022-11-14T14:06:14.622Z,3.28
2022-11-14T14:17:06.070Z,3.28
2022-11-14T14:28:03.307Z,3.26
2022-11-14T14:39:03.256Z,3.24
2022-11-14T14:49:40.043Z,3.21
2022-11-14T15:00:37.992Z,3.19
2022-11-14T15:11:33.060Z,3.18
2022-11-14T15:22:12.154Z,3.15
2022-11-14T15:33:06.750Z,3.15
2022-11-14T15:44:06.717Z,3.14
2022-11-14T15:54:54.254Z,3.13
2022-11-14T16:05:40.416Z,3.11
2022-11-14T16:16:37.420Z,3.11
2022-11-14T16:27:36.306Z,3.10
2022-11-14T16:38:34.435Z,3.10
2022-11-14T16:49:33.298Z,3.09
2022-11-14T17:00:35.900Z,3.09
2022-11-14T17:11:35.689Z,3.08
2022-11-14T17:22:36.026Z,3.07
2022-11-14T17:33:14.144Z,3.06
2022-11-14T17:44:12.547Z,3.06
2022-11-14T17:54:49.332Z,3.04
2022-11-14T18:05:51.317Z,3.04
2022-11-14T18:17:11.221Z,3.04
2022-11-14T18:27:53.036Z,3.04
2022-11-14T18:38:54.223Z,3.04
2022-11-14T18:49:31.711Z,3.02
2022-11-14T19:00:10.656Z,3.01
2022-11-14T19:11:10.372Z,3.02
2022-11-14T19:22:13.699Z,3.01
2022-11-14T19:32:51.893Z,3.00
2022-11-14T19:43:30.678Z,2.99
2022-11-14T19:54:25.713Z,2.99
2022-11-14T20:05:08.811Z,2.98
2022-11-14T20:15:52.304Z,2.98
2022-11-14T20:26:51.030Z,2.98
2022-11-14T20:37:45.728Z,2.97
2022-11-14T20:48:42.182Z,2.97
2022-11-14T20:59:40.054Z,2.97
2022-11-14T21:10:31.650Z,2.96
2022-11-14T21:21:19.702Z,2.96
2022-11-14T21:32:19.178Z,2.96
2022-11-14T21:42:58.917Z,2.95
2022-11-14T21:54:04.534Z,2.95
2022-11-14T22:04:51.001Z,2.94
2022-11-14T22:15:59.752Z,2.94
2022-11-14T22:27:06.901Z,2.94
2022-11-14T22:37:45.118Z,2.94
2022-11-14T22:48:39.028Z,2.94
2022-11-14T22:59:41.077Z,2.93
2022-11-14T23:10:54.612Z,2.93
2022-11-14T23:22:02.507Z,2.93
2022-11-14T23:33:13.240Z,2.93
2022-11-14T23:44:18.371Z,2.92
2022-11-14T23:55:28.418Z,2.92
